SBPG/PNG METAR and TAF weather

Enter ICAO airport designator
Station Type Date Time Source
SBPG METAR 2022/06/27 18:00 UTC NOAA

SBPG 271800Z 10008KT 9999 SCT025 17/11 Q1021


Station Type Date Time Source
SBPG Decoded METAR 2022/06/27 18:00 UTC NOAA

Paranagua, Brazil (SBPG) 25-31S 048-31W
Jun 27, 2022 - 02:00 PM EDT / 2022.06.27 1800 UTC
Wind: from the E (100 degrees) at 9 MPH (8 KT):0
Visibility: greater than 7 mile(s):0
Sky conditions: partly cloudy
Temperature: 62 F (17 C)
Dew Point: 51 F (11 C)
Relative Humidity: 67%
Pressure (altimeter): 30.15 in. Hg (1021 hPa)
ob: SBPG 271800Z 10008KT 9999 SCT025 17/11 Q1021
cycle: 18

Station Type Date Time Source
SBPG TAF UTC NOAA

Error!

Example: see airport list